sensor_id;sensor_type;location;lat;lon;timestamp;temperature;humidity
3488;DHT22;38546;48.170;11.724;2022-12-29T00:01:40;3.70;99.90
3488;DHT22;38546;48.170;11.724;2022-12-29T00:04:30;3.70;99.90
3488;DHT22;38546;48.170;11.724;2022-12-29T00:07:20;3.60;99.90
3488;DHT22;38546;48.170;11.724;2022-12-29T00:10:09;3.60;99.90
3488;DHT22;38546;48.170;11.724;2022-12-29T00:12:58;3.70;99.90
3488;DHT22;38546;48.170;11.724;2022-12-29T00:16:07;3.70;99.90
3488;DHT22;38546;48.170;11.724;2022-12-29T00:18:56;3.80;99.90
3488;DHT22;38546;48.170;11.724;2022-12-29T00:21:46;3.80;99.90
3488;DHT22;38546;48.170;11.724;2022-12-29T00:24:55;3.90;99.90
3488;DHT22;38546;48.170;11.724;2022-12-29T00:27:50;3.90;99.90
3488;DHT22;38546;48.170;11.724;2022-12-29T00:31:00;3.90;99.90
3488;DHT22;38546;48.170;11.724;2022-12-29T00:35:31;4.00;99.90
3488;DHT22;38546;48.170;11.724;2022-12-29T00:38:24;4.00;99.90
3488;DHT22;38546;48.170;11.724;2022-12-29T00:41:32;4.00;99.90
3488;DHT22;38546;48.170;11.724;2022-12-29T00:44:40;4.00;99.90
3488;DHT22;38546;48.170;11.724;2022-12-29T00:47:31;3.90;99.90
3488;DHT22;38546;48.170;11.724;2022-12-29T00:50:20;4.00;99.90
3488;DHT22;38546;48.170;11.724;2022-12-29T00:53:09;4.00;99.90
3488;DHT22;38546;48.170;11.724;2022-12-29T00:55:59;3.90;99.90
3488;DHT22;38546;48.170;11.724;2022-12-29T00:58:49;3.90;99.90
3488;DHT22;38546;48.170;11.724;2022-12-29T01:01:39;3.90;99.90
3488;DHT22;38546;48.170;11.724;2022-12-29T01:04:29;3.90;99.90
3488;DHT22;38546;48.170;11.724;2022-12-29T01:07:19;3.90;99.90
3488;DHT22;38546;48.170;11.724;2022-12-29T01:10:08;3.90;99.90
3488;DHT22;38546;48.170;11.724;2022-12-29T01:13:01;4.00;99.90
3488;DHT22;38546;48.170;11.724;2022-12-29T01:15:54;4.00;99.90
3488;DHT22;38546;48.170;11.724;2022-12-29T01:18:43;4.00;99.90
3488;DHT22;38546;48.170;11.724;2022-12-29T01:21:34;3.90;99.90
3488;DHT22;38546;48.170;11.724;2022-12-29T01:24:24;3.90;99.90
3488;DHT22;38546;48.170;11.724;2022-12-29T01:27:15;3.90;99.90
3488;DHT22;38546;48.170;11.724;2022-12-29T01:30:05;3.90;99.90
3488;DHT22;38546;48.170;11.724;2022-12-29T01:32:56;3.90;99.90
3488;DHT22;38546;48.170;11.724;2022-12-29T01:35:45;3.90;99.90
3488;DHT22;38546;48.170;11.724;2022-12-29T01:38:36;3.90;99.90
3488;DHT22;38546;48.170;11.724;2022-12-29T01:41:26;3.90;99.90
3488;DHT22;38546;48.170;11.724;2022-12-29T01:47:56;3.90;99.90
3488;DHT22;38546;48.170;11.724;2022-12-29T01:50:51;3.90;99.90
3488;DHT22;38546;48.170;11.724;2022-12-29T01:53:42;3.90;99.90
3488;DHT22;38546;48.170;11.724;2022-12-29T01:56:33;3.90;99.90
3488;DHT22;38546;48.170;11.724;2022-12-29T01:59:26;3.90;99.90
3488;DHT22;38546;48.170;11.724;2022-12-29T02:02:19;3.90;99.90
3488;DHT22;38546;48.170;11.724;2022-12-29T02:05:21;3.90;99.90
3488;DHT22;38546;48.170;11.724;2022-12-29T02:08:14;3.90;99.90
3488;DHT22;38546;48.170;11.724;2022-12-29T02:11:05;3.90;99.90
3488;DHT22;38546;48.170;11.724;2022-12-29T02:13:55;3.90;99.90
3488;DHT22;38546;48.170;11.724;2022-12-29T02:22:20;3.90;99.90
3488;DHT22;38546;48.170;11.724;2022-12-29T02:25:42;3.80;99.90
3488;DHT22;38546;48.170;11.724;2022-12-29T02:29:09;3.90;99.90
3488;DHT22;38546;48.170;11.724;2022-12-29T02:32:34;3.90;99.90
3488;DHT22;38546;48.170;11.724;2022-12-29T02:35:48;3.80;99.90
3488;DHT22;38546;48.170;11.724;2022-12-29T02:42:03;3.80;99.90
3488;DHT22;38546;48.170;11.724;2022-12-29T02:45:26;3.80;99.90
3488;DHT22;38546;48.170;11.724;2022-12-29T02:48:43;3.80;99.90
3488;DHT22;38546;48.170;11.724;2022-12-29T02:51:58;3.90;99.90
3488;DHT22;38546;48.170;11.724;2022-12-29T02:54:54;3.90;99.90
3488;DHT22;38546;48.170;11.724;2022-12-29T02:57:44;3.90;99.90
3488;DHT22;38546;48.170;11.724;2022-12-29T03:00:41;3.80;99.90
3488;DHT22;38546;48.170;11.724;2022-12-29T03:04:27;3.90;99.90
3488;DHT22;38546;48.170;11.724;2022-12-29T03:09:07;3.80;99.90
3488;DHT22;38546;48.170;11.724;2022-12-29T03:12:24;3.80;99.90
3488;DHT22;38546;48.170;11.724;2022-12-29T03:26:58;3.90;99.90
3488;DHT22;38546;48.170;11.724;2022-12-29T03:29:55;4.00;99.90
3488;DHT22;38546;48.170;11.724;2022-12-29T03:32:52;4.00;99.90
3488;DHT22;38546;48.170;11.724;2022-12-29T03:35:44;4.10;99.90
3488;DHT22;38546;48.170;11.724;2022-12-29T03:38:50;4.10;99.90
3488;DHT22;38546;48.170;11.724;2022-12-29T03:41:45;4.20;99.90
3488;DHT22;38546;48.170;11.724;2022-12-29T03:44:38;4.30;99.90
3488;DHT22;38546;48.170;11.724;2022-12-29T03:47:29;4.40;99.90
3488;DHT22;38546;48.170;11.724;2022-12-29T03:50:18;4.40;99.90
3488;DHT22;38546;48.170;11.724;2022-12-29T03:53:08;4.50;99.90
3488;DHT22;38546;48.170;11.724;2022-12-29T03:55:57;4.50;99.90
3488;DHT22;38546;48.170;11.724;2022-12-29T03:58:46;4.60;99.90
3488;DHT22;38546;48.170;11.724;2022-12-29T04:01:35;4.60;99.90
3488;DHT22;38546;48.170;11.724;2022-12-29T04:04:24;4.60;99.90
3488;DHT22;38546;48.170;11.724;2022-12-29T04:07:15;4.70;99.90
3488;DHT22;38546;48.170;11.724;2022-12-29T04:10:05;4.70;99.90
3488;DHT22;38546;48.170;11.724;2022-12-29T04:12:55;4.80;99.90
3488;DHT22;38546;48.170;11.724;2022-12-29T04:15:44;4.80;99.90
3488;DHT22;38546;48.170;11.724;2022-12-29T04:18:35;4.80;99.90
3488;DHT22;38546;48.170;11.724;2022-12-29T04:21:24;4.80;99.90
3488;DHT22;38546;48.170;11.724;2022-12-29T04:24:13;4.80;99.90
3488;DHT22;38546;48.170;11.724;2022-12-29T04:27:03;4.90;99.90
3488;DHT22;38546;48.170;11.724;2022-12-29T04:29:53;4.90;99.90
3488;DHT22;38546;48.170;11.724;2022-12-29T04:32:43;5.00;99.90
3488;DHT22;38546;48.170;11.724;2022-12-29T04:35:32;5.00;99.90
3488;DHT22;38546;48.170;11.724;2022-12-29T04:38:23;5.00;99.90
3488;DHT22;38546;48.170;11.724;2022-12-29T04:41:12;5.00;99.90
3488;DHT22;38546;48.170;11.724;2022-12-29T04:44:02;5.00;99.90
3488;DHT22;38546;48.170;11.724;2022-12-29T04:46:51;5.10;99.90
3488;DHT22;38546;48.170;11.724;2022-12-29T04:49:40;5.10;99.90
3488;DHT22;38546;48.170;11.724;2022-12-29T04:52:31;5.10;99.90
3488;DHT22;38546;48.170;11.724;2022-12-29T04:55:20;5.10;99.90
3488;DHT22;38546;48.170;11.724;2022-12-29T04:58:09;5.20;99.90
3488;DHT22;38546;48.170;11.724;2022-12-29T05:00:58;5.20;99.90
3488;DHT22;38546;48.170;11.724;2022-12-29T05:03:50;5.20;99.90
3488;DHT22;38546;48.170;11.724;2022-12-29T05:06:40;5.30;99.90
3488;DHT22;38546;48.170;11.724;2022-12-29T05:09:29;5.30;99.90
3488;DHT22;38546;48.170;11.724;2022-12-29T05:12:19;5.40;99.90
3488;DHT22;38546;48.170;11.724;2022-12-29T05:15:10;5.40;99.90
3488;DHT22;38546;48.170;11.724;2022-12-29T05:17:59;5.40;99.90
3488;DHT22;38546;48.170;11.724;2022-12-29T05:20:48;5.50;99.90
3488;DHT22;38546;48.170;11.724;2022-12-29T05:23:38;5.50;99.90
3488;DHT22;38546;48.170;11.724;2022-12-29T05:26:27;5.50;99.90
3488;DHT22;38546;48.170;11.724;2022-12-29T05:29:17;5.50;99.90
3488;DHT22;38546;48.170;11.724;2022-12-29T05:32:08;5.60;99.90
3488;DHT22;38546;48.170;11.724;2022-12-29T05:34:57;5.70;99.90
3488;DHT22;38546;48.170;11.724;2022-12-29T05:37:46;5.70;99.90
3488;DHT22;38546;48.170;11.724;2022-12-29T05:40:36;5.80;99.90
3488;DHT22;38546;48.170;11.724;2022-12-29T05:43:25;5.90;99.90
3488;DHT22;38546;48.170;11.724;2022-12-29T05:46:14;5.70;99.90
3488;DHT22;38546;48.170;11.724;2022-12-29T05:49:04;5.60;99.90
3488;DHT22;38546;48.170;11.724;2022-12-29T05:51:55;5.60;99.90
3488;DHT22;38546;48.170;11.724;2022-12-29T05:54:44;5.60;99.90
3488;DHT22;38546;48.170;11.724;2022-12-29T05:57:33;5.60;99.90
3488;DHT22;38546;48.170;11.724;2022-12-29T06:00:22;5.70;99.90
3488;DHT22;38546;48.170;11.724;2022-12-29T06:03:13;5.70;99.90
3488;DHT22;38546;48.170;11.724;2022-12-29T06:06:02;5.80;99.90
3488;DHT22;38546;48.170;11.724;2022-12-29T06:08:52;5.70;99.90
3488;DHT22;38546;48.170;11.724;2022-12-29T06:11:43;5.70;99.90
3488;DHT22;38546;48.170;11.724;2022-12-29T06:14:32;5.70;99.90
3488;DHT22;38546;48.170;11.724;2022-12-29T06:17:21;5.70;99.90
3488;DHT22;38546;48.170;11.724;2022-12-29T06:20:10;5.70;99.90
3488;DHT22;38546;48.170;11.724;2022-12-29T06:23:00;5.70;99.90
3488;DHT22;38546;48.170;11.724;2022-12-29T06:25:49;5.60;99.90
3488;DHT22;38546;48.170;11.724;2022-12-29T06:28:38;5.60;99.90
3488;DHT22;38546;48.170;11.724;2022-12-29T06:31:28;5.60;99.90
3488;DHT22;38546;48.170;11.724;2022-12-29T06:34:18;5.60;99.90
3488;DHT22;38546;48.170;11.724;2022-12-29T06:37:07;5.60;99.90
3488;DHT22;38546;48.170;11.724;2022-12-29T06:39:57;5.60;99.90
3488;DHT22;38546;48.170;11.724;2022-12-29T06:42:46;5.60;99.90
3488;DHT22;38546;48.170;11.724;2022-12-29T06:45:40;5.60;99.90
3488;DHT22;38546;48.170;11.724;2022-12-29T06:48:30;5.60;99.90
3488;DHT22;38546;48.170;11.724;2022-12-29T06:51:19;5.60;99.90
3488;DHT22;38546;48.170;11.724;2022-12-29T06:54:09;5.60;99.90
3488;DHT22;38546;48.170;11.724;2022-12-29T06:56:59;5.60;99.90
3488;DHT22;38546;48.170;11.724;2022-12-29T06:59:48;5.60;99.90
3488;DHT22;38546;48.170;11.724;2022-12-29T07:02:38;5.60;99.90
3488;DHT22;38546;48.170;11.724;2022-12-29T07:05:27;5.70;99.90
3488;DHT22;38546;48.170;11.724;2022-12-29T07:08:17;5.80;99.90
3488;DHT22;38546;48.170;11.724;2022-12-29T07:11:07;5.90;99.90
3488;DHT22;38546;48.170;11.724;2022-12-29T07:13:57;5.90;99.90
3488;DHT22;38546;48.170;11.724;2022-12-29T07:16:47;5.90;99.90
3488;DHT22;38546;48.170;11.724;2022-12-29T07:19:36;5.90;99.90
3488;DHT22;38546;48.170;11.724;2022-12-29T07:22:25;5.90;99.90
3488;DHT22;38546;48.170;11.724;2022-12-29T07:25:15;5.80;99.90
3488;DHT22;38546;48.170;11.724;2022-12-29T07:28:04;5.80;99.90
3488;DHT22;38546;48.170;11.724;2022-12-29T07:30:53;5.80;99.90
3488;DHT22;38546;48.170;11.724;2022-12-29T07:33:43;5.90;99.90
3488;DHT22;38546;48.170;11.724;2022-12-29T07:36:33;5.90;99.90
3488;DHT22;38546;48.170;11.724;2022-12-29T07:39:22;5.90;99.90
3488;DHT22;38546;48.170;11.724;2022-12-29T07:42:11;5.90;99.90
3488;DHT22;38546;48.170;11.724;2022-12-29T07:45:00;5.90;99.90
3488;DHT22;38546;48.170;11.724;2022-12-29T07:47:50;5.90;99.90
3488;DHT22;38546;48.170;11.724;2022-12-29T07:50:39;5.90;99.90
3488;DHT22;38546;48.170;11.724;2022-12-29T07:53:30;5.90;99.90
3488;DHT22;38546;48.170;11.724;2022-12-29T07:56:19;5.90;99.90
3488;DHT22;38546;48.170;11.724;2022-12-29T07:59:08;5.90;99.90
3488;DHT22;38546;48.170;11.724;2022-12-29T08:01:58;5.90;99.90
3488;DHT22;38546;48.170;11.724;2022-12-29T08:04:47;5.90;99.90
3488;DHT22;38546;48.170;11.724;2022-12-29T08:07:36;5.90;99.90
3488;DHT22;38546;48.170;11.724;2022-12-29T08:10:26;5.90;99.90
3488;DHT22;38546;48.170;11.724;2022-12-29T08:13:15;6.00;99.90
3488;DHT22;38546;48.170;11.724;2022-12-29T08:16:06;6.10;99.90
3488;DHT22;38546;48.170;11.724;2022-12-29T08:18:55;6.30;99.90
3488;DHT22;38546;48.170;11.724;2022-12-29T08:21:44;6.40;99.90
3488;DHT22;38546;48.170;11.724;2022-12-29T08:24:33;6.50;99.90
3488;DHT22;38546;48.170;11.724;2022-12-29T08:27:23;6.60;99.90
3488;DHT22;38546;48.170;11.724;2022-12-29T08:30:14;6.70;99.90
3488;DHT22;38546;48.170;11.724;2022-12-29T08:33:03;6.80;99.90
3488;DHT22;38546;48.170;11.724;2022-12-29T08:35:52;6.80;99.90
3488;DHT22;38546;48.170;11.724;2022-12-29T08:38:46;6.80;99.90
3488;DHT22;38546;48.170;11.724;2022-12-29T08:41:35;6.90;99.90
3488;DHT22;38546;48.170;11.724;2022-12-29T08:44:25;6.90;99.90
3488;DHT22;38546;48.170;11.724;2022-12-29T08:47:14;6.90;99.90
3488;DHT22;38546;48.170;11.724;2022-12-29T08:50:05;7.00;99.90
3488;DHT22;38546;48.170;11.724;2022-12-29T08:52:55;7.00;99.90
3488;DHT22;38546;48.170;11.724;2022-12-29T08:55:56;7.10;99.90
3488;DHT22;38546;48.170;11.724;2022-12-29T08:58:47;7.30;99.90
3488;DHT22;38546;48.170;11.724;2022-12-29T09:01:36;7.40;99.90
3488;DHT22;38546;48.170;11.724;2022-12-29T09:04:29;7.50;99.90
3488;DHT22;38546;48.170;11.724;2022-12-29T09:07:18;7.50;99.90
3488;DHT22;38546;48.170;11.724;2022-12-29T09:10:07;7.50;99.90
3488;DHT22;38546;48.170;11.724;2022-12-29T09:12:57;7.50;99.90
3488;DHT22;38546;48.170;11.724;2022-12-29T09:15:47;7.60;99.90
3488;DHT22;38546;48.170;11.724;2022-12-29T09:18:37;7.50;99.90
3488;DHT22;38546;48.170;11.724;2022-12-29T09:21:27;7.50;99.90
3488;DHT22;38546;48.170;11.724;2022-12-29T09:24:16;7.50;99.90
3488;DHT22;38546;48.170;11.724;2022-12-29T09:27:06;7.70;99.90
3488;DHT22;38546;48.170;11.724;2022-12-29T09:29:55;7.70;99.90
3488;DHT22;38546;48.170;11.724;2022-12-29T09:32:45;7.90;99.90
3488;DHT22;38546;48.170;11.724;2022-12-29T09:35:35;8.00;99.90
3488;DHT22;38546;48.170;11.724;2022-12-29T09:38:26;8.10;99.90
3488;DHT22;38546;48.170;11.724;2022-12-29T09:41:37;8.10;99.90
3488;DHT22;38546;48.170;11.724;2022-12-29T09:46:09;8.20;99.90
3488;DHT22;38546;48.170;11.724;2022-12-29T09:50:32;8.30;99.90
3488;DHT22;38546;48.170;11.724;2022-12-29T09:53:43;8.50;99.90
3488;DHT22;38546;48.170;11.724;2022-12-29T09:56:35;8.70;99.90
3488;DHT22;38546;48.170;11.724;2022-12-29T09:59:31;8.90;99.90
3488;DHT22;38546;48.170;11.724;2022-12-29T10:02:38;9.00;99.90
3488;DHT22;38546;48.170;11.724;2022-12-29T10:05:39;9.10;99.90
3488;DHT22;38546;48.170;11.724;2022-12-29T10:09:16;9.30;99.90
3488;DHT22;38546;48.170;11.724;2022-12-29T10:15:29;9.20;99.90
3488;DHT22;38546;48.170;11.724;2022-12-29T10:18:50;9.10;99.90
3488;DHT22;38546;48.170;11.724;2022-12-29T10:27:13;9.20;99.90
3488;DHT22;38546;48.170;11.724;2022-12-29T10:30:03;9.20;99.90
3488;DHT22;38546;48.170;11.724;2022-12-29T10:33:04;9.30;99.90
3488;DHT22;38546;48.170;11.724;2022-12-29T10:35:55;9.30;99.90
3488;DHT22;38546;48.170;11.724;2022-12-29T10:39:16;9.30;99.90
3488;DHT22;38546;48.170;11.724;2022-12-29T10:42:33;9.30;99.90
3488;DHT22;38546;48.170;11.724;2022-12-29T10:45:29;9.30;99.90
3488;DHT22;38546;48.170;11.724;2022-12-29T10:48:34;9.40;99.90
3488;DHT22;38546;48.170;11.724;2022-12-29T10:51:34;9.40;99.90
3488;DHT22;38546;48.170;11.724;2022-12-29T10:54:54;9.50;99.90
3488;DHT22;38546;48.170;11.724;2022-12-29T10:58:46;9.50;99.90
3488;DHT22;38546;48.170;11.724;2022-12-29T11:01:42;9.60;99.90
3488;DHT22;38546;48.170;11.724;2022-12-29T11:04:53;9.70;99.90
3488;DHT22;38546;48.170;11.724;2022-12-29T11:07:49;9.80;99.90
3488;DHT22;38546;48.170;11.724;2022-12-29T11:10:41;9.90;99.90
3488;DHT22;38546;48.170;11.724;2022-12-29T11:13:48;10.20;99.90
3488;DHT22;38546;48.170;11.724;2022-12-29T11:16:39;10.50;99.90
3488;DHT22;38546;48.170;11.724;2022-12-29T11:19:32;10.70;99.90
3488;DHT22;38546;48.170;11.724;2022-12-29T11:22:28;11.00;99.40
3488;DHT22;38546;48.170;11.724;2022-12-29T11:25:17;11.00;99.60
3488;DHT22;38546;48.170;11.724;2022-12-29T11:28:15;11.10;99.90
3488;DHT22;38546;48.170;11.724;2022-12-29T11:31:06;11.30;98.90
3488;DHT22;38546;48.170;11.724;2022-12-29T11:33:56;11.90;97.90
3488;DHT22;38546;48.170;11.724;2022-12-29T11:36:47;12.50;96.90
3488;DHT22;38546;48.170;11.724;2022-12-29T11:39:40;12.50;97.70
3488;DHT22;38546;48.170;11.724;2022-12-29T11:42:58;12.40;98.30
3488;DHT22;38546;48.170;11.724;2022-12-29T11:45:52;12.80;96.50
3488;DHT22;38546;48.170;11.724;2022-12-29T11:48:42;12.80;96.40
3488;DHT22;38546;48.170;11.724;2022-12-29T11:51:48;12.60;97.30
3488;DHT22;38546;48.170;11.724;2022-12-29T11:54:39;12.70;95.70
3488;DHT22;38546;48.170;11.724;2022-12-29T11:57:29;13.00;93.90
3488;DHT22;38546;48.170;11.724;2022-12-29T12:00:23;13.00;93.80
3488;DHT22;38546;48.170;11.724;2022-12-29T12:03:21;12.90;94.80
3488;DHT22;38546;48.170;11.724;2022-12-29T12:06:16;12.70;95.70
3488;DHT22;38546;48.170;11.724;2022-12-29T12:09:21;12.60;94.90
3488;DHT22;38546;48.170;11.724;2022-12-29T12:12:30;13.00;93.90
3488;DHT22;38546;48.170;11.724;2022-12-29T12:15:29;12.70;94.10
3488;DHT22;38546;48.170;11.724;2022-12-29T12:20:02;13.10;91.90
3488;DHT22;38546;48.170;11.724;2022-12-29T12:26:35;13.10;92.20
3488;DHT22;38546;48.170;11.724;2022-12-29T12:29:50;13.20;92.10
3488;DHT22;38546;48.170;11.724;2022-12-29T12:33:10;13.40;91.60
3488;DHT22;38546;48.170;11.724;2022-12-29T12:36:33;13.50;91.50
3488;DHT22;38546;48.170;11.724;2022-12-29T12:41:08;13.60;91.00
3488;DHT22;38546;48.170;11.724;2022-12-29T12:47:04;13.70;91.20
3488;DHT22;38546;48.170;11.724;2022-12-29T12:50:51;13.60;91.40
3488;DHT22;38546;48.170;11.724;2022-12-29T12:55:58;13.70;91.90
3488;DHT22;38546;48.170;11.724;2022-12-29T13:04:28;13.70;92.20
3488;DHT22;38546;48.170;11.724;2022-12-29T13:09:25;13.70;92.00
3488;DHT22;38546;48.170;11.724;2022-12-29T13:14:01;13.80;91.90
3488;DHT22;38546;48.170;11.724;2022-12-29T13:20:31;13.70;92.40
3488;DHT22;38546;48.170;11.724;2022-12-29T13:23:50;13.70;92.80
3488;DHT22;38546;48.170;11.724;2022-12-29T13:26:57;13.60;92.50
3488;DHT22;38546;48.170;11.724;2022-12-29T13:30:18;13.30;93.10
3488;DHT22;38546;48.170;11.724;2022-12-29T13:34:44;13.20;93.30
3488;DHT22;38546;48.170;11.724;2022-12-29T13:42:37;13.20;93.50
3488;DHT22;38546;48.170;11.724;2022-12-29T13:45:30;13.10;93.80
3488;DHT22;38546;48.170;11.724;2022-12-29T13:48:37;12.90;94.60
3488;DHT22;38546;48.170;11.724;2022-12-29T13:51:29;13.00;94.10
3488;DHT22;38546;48.170;11.724;2022-12-29T13:54:45;13.00;94.20
3488;DHT22;38546;48.170;11.724;2022-12-29T13:58:27;12.90;94.50
3488;DHT22;38546;48.170;11.724;2022-12-29T14:11:36;12.70;94.80
3488;DHT22;38546;48.170;11.724;2022-12-29T14:14:30;12.30;95.90
3488;DHT22;38546;48.170;11.724;2022-12-29T14:17:21;12.10;96.20
3488;DHT22;38546;48.170;11.724;2022-12-29T14:20:21;12.00;96.70
3488;DHT22;38546;48.170;11.724;2022-12-29T14:23:25;11.80;97.10
3488;DHT22;38546;48.170;11.724;2022-12-29T14:29:47;11.60;96.80
3488;DHT22;38546;48.170;11.724;2022-12-29T14:32:37;11.50;96.60
3488;DHT22;38546;48.170;11.724;2022-12-29T14:35:42;11.40;96.90
3488;DHT22;38546;48.170;11.724;2022-12-29T14:38:33;11.30;97.50
3488;DHT22;38546;48.170;11.724;2022-12-29T14:41:43;11.20;96.50
3488;DHT22;38546;48.170;11.724;2022-12-29T14:44:34;11.10;96.40
3488;DHT22;38546;48.170;11.724;2022-12-29T14:47:40;11.10;96.80
3488;DHT22;38546;48.170;11.724;2022-12-29T14:50:42;10.90;97.40
3488;DHT22;38546;48.170;11.724;2022-12-29T14:53:49;10.80;97.20
3488;DHT22;38546;48.170;11.724;2022-12-29T14:56:40;10.80;97.30
3488;DHT22;38546;48.170;11.724;2022-12-29T14:59:31;10.80;97.30
3488;DHT22;38546;48.170;11.724;2022-12-29T15:02:24;10.70;97.30
3488;DHT22;38546;48.170;11.724;2022-12-29T15:05:30;10.60;97.40
3488;DHT22;38546;48.170;11.724;2022-12-29T15:08:31;10.60;97.40
3488;DHT22;38546;48.170;11.724;2022-12-29T15:11:47;10.60;97.10
3488;DHT22;38546;48.170;11.724;2022-12-29T15:14:47;10.70;96.70
3488;DHT22;38546;48.170;11.724;2022-12-29T15:17:39;10.60;97.00
3488;DHT22;38546;48.170;11.724;2022-12-29T15:20:30;10.50;97.30
3488;DHT22;38546;48.170;11.724;2022-12-29T15:23:20;10.40;97.90
3488;DHT22;38546;48.170;11.724;2022-12-29T15:26:11;10.30;97.60
3488;DHT22;38546;48.170;11.724;2022-12-29T15:29:00;10.30;97.70
3488;DHT22;38546;48.170;11.724;2022-12-29T15:31:49;10.20;98.20
3488;DHT22;38546;48.170;11.724;2022-12-29T15:34:38;10.10;98.10
3488;DHT22;38546;48.170;11.724;2022-12-29T15:37:33;10.00;97.70
3488;DHT22;38546;48.170;11.724;2022-12-29T15:40:32;9.90;98.80
3488;DHT22;38546;48.170;11.724;2022-12-29T15:44:12;9.80;98.80
3488;DHT22;38546;48.170;11.724;2022-12-29T15:47:12;9.70;98.40
3488;DHT22;38546;48.170;11.724;2022-12-29T15:50:29;9.60;99.00
3488;DHT22;38546;48.170;11.724;2022-12-29T15:53:28;9.60;98.70
3488;DHT22;38546;48.170;11.724;2022-12-29T15:56:19;9.50;98.40
3488;DHT22;38546;48.170;11.724;2022-12-29T15:59:27;9.50;98.60
3488;DHT22;38546;48.170;11.724;2022-12-29T16:02:18;9.50;98.60
3488;DHT22;38546;48.170;11.724;2022-12-29T16:05:16;9.50;98.80
3488;DHT22;38546;48.170;11.724;2022-12-29T16:08:29;9.40;98.60
3488;DHT22;38546;48.170;11.724;2022-12-29T16:11:40;9.40;98.90
3488;DHT22;38546;48.170;11.724;2022-12-29T16:14:41;9.40;99.00
3488;DHT22;38546;48.170;11.724;2022-12-29T16:17:46;9.40;99.00
3488;DHT22;38546;48.170;11.724;2022-12-29T16:20:42;9.40;98.90
3488;DHT22;38546;48.170;11.724;2022-12-29T16:23:32;9.40;98.50
3488;DHT22;38546;48.170;11.724;2022-12-29T16:26:23;9.40;98.90
3488;DHT22;38546;48.170;11.724;2022-12-29T16:29:13;9.40;99.00
3488;DHT22;38546;48.170;11.724;2022-12-29T16:32:29;9.40;98.90
3488;DHT22;38546;48.170;11.724;2022-12-29T16:35:28;9.40;99.10
3488;DHT22;38546;48.170;11.724;2022-12-29T16:38:36;9.40;99.20
3488;DHT22;38546;48.170;11.724;2022-12-29T16:41:32;9.40;99.40
3488;DHT22;38546;48.170;11.724;2022-12-29T16:44:23;9.30;99.20
3488;DHT22;38546;48.170;11.724;2022-12-29T16:47:20;9.30;99.30
3488;DHT22;38546;48.170;11.724;2022-12-29T16:50:17;9.40;99.70
3488;DHT22;38546;48.170;11.724;2022-12-29T16:53:20;9.40;99.90
3488;DHT22;38546;48.170;11.724;2022-12-29T16:56:21;9.30;99.90
3488;DHT22;38546;48.170;11.724;2022-12-29T16:59:40;9.30;99.90
3488;DHT22;38546;48.170;11.724;2022-12-29T17:02:34;9.30;99.90
3488;DHT22;38546;48.170;11.724;2022-12-29T17:05:34;9.30;99.90
3488;DHT22;38546;48.170;11.724;2022-12-29T17:08:23;9.20;99.90
3488;DHT22;38546;48.170;11.724;2022-12-29T17:11:29;9.20;99.90
3488;DHT22;38546;48.170;11.724;2022-12-29T17:15:24;9.20;99.90
3488;DHT22;38546;48.170;11.724;2022-12-29T17:18:14;9.10;99.90
3488;DHT22;38546;48.170;11.724;2022-12-29T17:21:04;9.10;99.90
3488;DHT22;38546;48.170;11.724;2022-12-29T17:23:54;9.00;99.90
3488;DHT22;38546;48.170;11.724;2022-12-29T17:26:45;9.00;99.90
3488;DHT22;38546;48.170;11.724;2022-12-29T17:29:38;9.00;99.90
3488;DHT22;38546;48.170;11.724;2022-12-29T17:32:29;8.90;99.90
3488;DHT22;38546;48.170;11.724;2022-12-29T17:35:21;8.90;99.90
3488;DHT22;38546;48.170;11.724;2022-12-29T17:38:53;8.90;99.90
3488;DHT22;38546;48.170;11.724;2022-12-29T17:41:42;8.90;99.90
3488;DHT22;38546;48.170;11.724;2022-12-29T17:44:33;8.90;99.90
3488;DHT22;38546;48.170;11.724;2022-12-29T17:47:22;8.80;99.90
3488;DHT22;38546;48.170;11.724;2022-12-29T17:50:14;8.80;99.90
3488;DHT22;38546;48.170;11.724;2022-12-29T17:53:19;8.80;99.90
3488;DHT22;38546;48.170;11.724;2022-12-29T17:56:12;8.80;99.90
3488;DHT22;38546;48.170;11.724;2022-12-29T17:59:02;8.80;99.90
3488;DHT22;38546;48.170;11.724;2022-12-29T18:01:51;8.70;99.90
3488;DHT22;38546;48.170;11.724;2022-12-29T18:04:40;8.80;99.90
3488;DHT22;38546;48.170;11.724;2022-12-29T18:07:30;8.70;99.90
3488;DHT22;38546;48.170;11.724;2022-12-29T18:10:21;8.70;99.90
3488;DHT22;38546;48.170;11.724;2022-12-29T18:13:24;8.70;99.90
3488;DHT22;38546;48.170;11.724;2022-12-29T18:16:14;8.70;99.90
3488;DHT22;38546;48.170;11.724;2022-12-29T18:19:03;8.80;99.90
3488;DHT22;38546;48.170;11.724;2022-12-29T18:21:53;8.80;99.90
3488;DHT22;38546;48.170;11.724;2022-12-29T18:24:43;8.70;99.90
3488;DHT22;38546;48.170;11.724;2022-12-29T18:27:32;8.70;99.90
3488;DHT22;38546;48.170;11.724;2022-12-29T18:30:21;8.70;99.90
3488;DHT22;38546;48.170;11.724;2022-12-29T18:33:14;8.70;99.90
3488;DHT22;38546;48.170;11.724;2022-12-29T18:36:05;8.70;99.90
3488;DHT22;38546;48.170;11.724;2022-12-29T18:38:55;8.70;99.90
3488;DHT22;38546;48.170;11.724;2022-12-29T18:41:43;8.60;99.90
3488;DHT22;38546;48.170;11.724;2022-12-29T18:44:33;8.60;99.90
3488;DHT22;38546;48.170;11.724;2022-12-29T18:47:22;8.60;99.90
3488;DHT22;38546;48.170;11.724;2022-12-29T18:50:12;8.50;99.90
3488;DHT22;38546;48.170;11.724;2022-12-29T18:53:02;8.50;99.90
3488;DHT22;38546;48.170;11.724;2022-12-29T18:55:52;8.40;99.90
3488;DHT22;38546;48.170;11.724;2022-12-29T18:58:42;8.40;99.90
3488;DHT22;38546;48.170;11.724;2022-12-29T19:01:31;8.40;99.90
3488;DHT22;38546;48.170;11.724;2022-12-29T19:04:21;8.40;99.90
3488;DHT22;38546;48.170;11.724;2022-12-29T19:07:10;8.40;99.90
3488;DHT22;38546;48.170;11.724;2022-12-29T19:10:00;8.40;99.90
3488;DHT22;38546;48.170;11.724;2022-12-29T19:12:50;8.40;99.90
3488;DHT22;38546;48.170;11.724;2022-12-29T19:15:41;8.40;99.90
3488;DHT22;38546;48.170;11.724;2022-12-29T19:18:30;8.40;99.90
3488;DHT22;38546;48.170;11.724;2022-12-29T19:21:21;8.30;99.90
3488;DHT22;38546;48.170;11.724;2022-12-29T19:24:11;8.30;99.90
3488;DHT22;38546;48.170;11.724;2022-12-29T19:27:00;8.30;99.90
3488;DHT22;38546;48.170;11.724;2022-12-29T19:29:49;8.40;99.90
3488;DHT22;38546;48.170;11.724;2022-12-29T19:32:38;8.40;99.90
3488;DHT22;38546;48.170;11.724;2022-12-29T19:35:28;8.40;99.90
3488;DHT22;38546;48.170;11.724;2022-12-29T19:38:18;8.40;99.90
3488;DHT22;38546;48.170;11.724;2022-12-29T19:41:07;8.30;99.90
3488;DHT22;38546;48.170;11.724;2022-12-29T19:43:57;8.40;99.90
3488;DHT22;38546;48.170;11.724;2022-12-29T19:46:46;8.40;99.90
3488;DHT22;38546;48.170;11.724;2022-12-29T19:49:36;8.50;99.90
3488;DHT22;38546;48.170;11.724;2022-12-29T19:52:26;8.40;99.90
3488;DHT22;38546;48.170;11.724;2022-12-29T19:55:16;8.40;99.90
3488;DHT22;38546;48.170;11.724;2022-12-29T19:58:06;8.30;99.90
3488;DHT22;38546;48.170;11.724;2022-12-29T20:01:03;8.30;99.90
3488;DHT22;38546;48.170;11.724;2022-12-29T20:03:54;8.40;99.90
3488;DHT22;38546;48.170;11.724;2022-12-29T20:06:43;8.30;99.90